createdAt,value
2018-05-02T00:00:14.768Z,0
2018-05-02T00:01:24.917Z,0
2018-05-02T00:02:35.060Z,0
2018-05-02T00:03:45.220Z,0
2018-05-02T00:04:55.501Z,0
2018-05-02T00:06:05.726Z,0
2018-05-02T00:07:15.857Z,0
2018-05-02T00:08:25.729Z,0
2018-05-02T00:09:35.864Z,0
2018-05-02T00:10:45.999Z,0
2018-05-02T00:11:56.166Z,0
2018-05-02T00:13:06.415Z,0
2018-05-02T00:14:16.602Z,0
2018-05-02T00:15:26.761Z,0
2018-05-02T00:16:36.897Z,0
2018-05-02T00:17:47.047Z,0
2018-05-02T00:18:57.171Z,0
2018-05-02T00:20:07.328Z,0
2018-05-02T00:21:17.493Z,0
2018-05-02T00:22:27.423Z,0
2018-05-02T00:23:37.677Z,0
2018-05-02T00:24:47.860Z,0
2018-05-02T00:25:58.021Z,0
2018-05-02T00:27:08.264Z,0
2018-05-02T00:28:18.424Z,0
2018-05-02T00:29:28.617Z,0
2018-05-02T00:30:38.743Z,0
2018-05-02T00:31:48.514Z,0
2018-05-02T00:32:58.757Z,0
2018-05-02T00:34:08.862Z,0
2018-05-02T00:35:19.182Z,0
2018-05-02T00:36:29.008Z,0
2018-05-02T00:37:39.154Z,0
2018-05-02T00:38:49.026Z,0
2018-05-02T00:39:59.182Z,0
2018-05-02T00:41:09.422Z,0
2018-05-02T00:42:19.589Z,0
2018-05-02T00:43:29.795Z,0
2018-05-02T00:44:39.997Z,0
2018-05-02T00:45:49.877Z,0
2018-05-02T00:47:00.116Z,0
2018-05-02T00:48:10.238Z,0
2018-05-02T00:49:20.397Z,0
2018-05-02T00:50:30.650Z,0
2018-05-02T00:51:40.802Z,0
2018-05-02T00:52:50.937Z,0
2018-05-02T00:54:01.064Z,0
2018-05-02T00:55:11.180Z,0
2018-05-02T00:56:21.394Z,0
2018-05-02T00:57:31.649Z,0
2018-05-02T00:58:41.765Z,0
2018-05-02T00:59:51.920Z,0
2018-05-02T01:01:02.173Z,0
2018-05-02T01:02:12.344Z,0
2018-05-02T01:03:22.540Z,0
2018-05-02T01:04:32.674Z,0
2018-05-02T01:05:42.790Z,0
2018-05-02T01:06:52.992Z,0
2018-05-02T01:08:03.139Z,0
2018-05-02T01:09:13.317Z,0
2018-05-02T01:10:23.193Z,0
2018-05-02T01:11:33.321Z,0
2018-05-02T01:12:43.183Z,0
2018-05-02T01:13:53.076Z,0
2018-05-02T01:15:03.194Z,0
2018-05-02T01:16:13.321Z,0
2018-05-02T01:17:23.458Z,0
2018-05-02T01:18:33.590Z,0
2018-05-02T01:19:43.813Z,0
2018-05-02T01:20:53.977Z,0
2018-05-02T01:22:04.199Z,0
2018-05-02T01:23:14.401Z,0
2018-05-02T01:24:24.541Z,0
2018-05-02T01:25:34.677Z,0
2018-05-02T01:26:44.828Z,0
2018-05-02T01:27:54.951Z,0
2018-05-02T01:29:04.735Z,0
2018-05-02T01:30:14.868Z,0
2018-05-02T01:31:26.117Z,0
2018-05-02T01:32:36.270Z,0
2018-05-02T01:33:46.427Z,0
2018-05-02T01:34:56.558Z,0
2018-05-02T01:36:06.435Z,0
2018-05-02T01:37:16.581Z,0
2018-05-02T01:38:26.735Z,0
2018-05-02T01:39:36.863Z,0
2018-05-02T01:40:46.988Z,0
2018-05-02T01:41:57.176Z,0
2018-05-02T01:43:07.343Z,0
2018-05-02T01:44:17.577Z,0
2018-05-02T01:45:27.749Z,0
2018-05-02T01:46:37.999Z,0
2018-05-02T01:47:48.172Z,0
2018-05-02T01:48:58.313Z,0
2018-05-02T01:50:08.273Z,0
2018-05-02T01:51:18.392Z,0
2018-05-02T01:52:29.491Z,0
2018-05-02T01:53:39.639Z,0
2018-05-02T01:54:49.784Z,0
2018-05-02T01:55:59.980Z,0
2018-05-02T01:57:10.114Z,0
2018-05-02T01:58:51.901Z,0
2018-05-02T02:00:02.060Z,0
2018-05-02T02:01:12.221Z,0
2018-05-02T02:02:22.101Z,0
2018-05-02T02:03:32.369Z,0
2018-05-02T02:04:42.498Z,0
2018-05-02T02:05:52.728Z,0
2018-05-02T02:07:02.862Z,0
2018-05-02T02:08:13.030Z,0
2018-05-02T02:09:23.248Z,0
2018-05-02T02:10:33.393Z,0
2018-05-02T02:11:43.521Z,0
2018-05-02T02:12:53.653Z,0
2018-05-02T02:14:03.769Z,0
2018-05-02T02:15:13.961Z,0
2018-05-02T02:16:24.153Z,0
2018-05-02T02:17:34.343Z,0
2018-05-02T02:18:44.539Z,0
2018-05-02T02:19:54.778Z,0
2018-05-02T02:21:04.985Z,0
2018-05-02T02:22:15.136Z,0
2018-05-02T02:23:25.006Z,0
2018-05-02T02:24:34.996Z,0
2018-05-02T02:25:45.143Z,0
2018-05-02T02:26:55.277Z,0
2018-05-02T02:28:05.466Z,0
2018-05-02T02:29:15.708Z,0
2018-05-02T02:30:25.924Z,0
2018-05-02T02:31:35.705Z,0
2018-05-02T02:32:45.938Z,0
2018-05-02T02:33:56.826Z,0
2018-05-02T02:35:07.049Z,0
2018-05-02T02:36:16.992Z,0
2018-05-02T02:37:27.118Z,0
2018-05-02T02:38:37.278Z,0
2018-05-02T02:39:47.142Z,0
2018-05-02T02:40:57.574Z,0
2018-05-02T02:42:07.712Z,0
2018-05-02T02:43:17.957Z,0
2018-05-02T02:44:28.173Z,0
2018-05-02T02:45:38.045Z,0
2018-05-02T02:46:48.037Z,0
2018-05-02T02:47:58.253Z,0
2018-05-02T02:49:08.422Z,0
2018-05-02T02:50:18.611Z,0
2018-05-02T02:51:28.495Z,0
2018-05-02T02:52:38.641Z,0
2018-05-02T02:53:48.548Z,0
2018-05-02T02:54:58.726Z,0
2018-05-02T02:56:08.857Z,0
2018-05-02T02:57:19.001Z,0
2018-05-02T02:58:29.120Z,0
2018-05-02T02:59:39.237Z,0
2018-05-02T03:00:49.369Z,0
2018-05-02T03:01:59.558Z,0
2018-05-02T03:03:09.682Z,0
2018-05-02T03:04:19.875Z,0
2018-05-02T03:05:29.764Z,0
2018-05-02T03:06:39.892Z,0
2018-05-02T03:07:50.047Z,0
2018-05-02T03:09:00.203Z,4
2018-05-02T03:10:10.413Z,4
2018-05-02T03:11:20.028Z,0
2018-05-02T03:12:29.929Z,4
2018-05-02T03:13:40.154Z,4
2018-05-02T03:14:50.361Z,4
2018-05-02T03:16:00.635Z,4
2018-05-02T03:17:10.854Z,4
2018-05-02T03:18:21.087Z,8
2018-05-02T03:19:30.969Z,8
2018-05-02T03:20:40.835Z,12
2018-05-02T03:21:50.958Z,12
2018-05-02T03:23:01.076Z,12
2018-05-02T03:24:11.190Z,20
2018-05-02T03:25:21.335Z,20
2018-05-02T03:26:31.456Z,24
2018-05-02T03:27:41.610Z,28
2018-05-02T03:28:51.734Z,36
2018-05-02T03:30:01.846Z,40
2018-05-02T03:31:11.863Z,44
2018-05-02T03:32:21.975Z,52
2018-05-02T03:33:32.150Z,60
2018-05-02T03:34:42.293Z,68
2018-05-02T03:35:52.495Z,76
2018-05-02T03:37:02.660Z,88
2018-05-02T03:38:12.863Z,96
2018-05-02T03:39:23.083Z,108
2018-05-02T03:40:33.274Z,124
2018-05-02T03:41:43.412Z,136
2018-05-02T03:42:53.533Z,152
2018-05-02T03:44:03.679Z,168
2018-05-02T03:45:13.808Z,184
2018-05-02T03:46:23.679Z,200
2018-05-02T03:47:33.817Z,216
2018-05-02T03:48:43.931Z,232
2018-05-02T03:49:54.179Z,248
2018-05-02T03:51:04.313Z,268
2018-05-02T03:52:14.283Z,288
2018-05-02T03:53:24.470Z,308
2018-05-02T03:54:34.354Z,324
2018-05-02T03:55:44.578Z,348
2018-05-02T03:56:54.720Z,368
2018-05-02T03:58:04.836Z,388
2018-05-02T03:59:15.055Z,408
2018-05-02T04:00:25.173Z,432
2018-05-02T04:01:35.334Z,452
2018-05-02T04:02:45.456Z,476
2018-05-02T04:03:55.606Z,500
2018-05-02T04:05:05.376Z,528
2018-05-02T04:06:15.530Z,552
2018-05-02T04:07:25.655Z,580
2018-05-02T04:08:36.070Z,612
2018-05-02T04:09:46.448Z,640
2018-05-02T04:10:56.861Z,672
2018-05-02T04:12:06.986Z,704
2018-05-02T04:13:17.146Z,732
2018-05-02T04:14:27.378Z,760
2018-05-02T04:15:37.723Z,792
2018-05-02T04:16:47.852Z,828
2018-05-02T04:17:58.626Z,868
2018-05-02T04:19:08.402Z,920
2018-05-02T04:20:18.535Z,964
2018-05-02T04:21:28.704Z,1008
2018-05-02T04:22:38.912Z,1044
2018-05-02T04:23:49.119Z,1064
2018-05-02T04:24:59.365Z,1092
2018-05-02T04:26:09.809Z,1124
2018-05-02T04:27:20.029Z,1156
2018-05-02T04:28:30.171Z,1196
2018-05-02T04:29:40.063Z,1252
2018-05-02T04:30:50.188Z,1344
2018-05-02T04:32:00.335Z,1420
2018-05-02T04:33:10.495Z,1484
2018-05-02T04:34:20.672Z,1528
2018-05-02T04:35:31.871Z,1568
2018-05-02T04:36:42.031Z,1604
2018-05-02T04:37:52.173Z,1640
2018-05-02T04:39:02.309Z,1684
2018-05-02T04:40:12.436Z,1720
2018-05-02T04:41:22.208Z,1744
2018-05-02T04:42:32.346Z,1764
2018-05-02T04:43:42.529Z,1804
2018-05-02T04:44:52.677Z,1856
2018-05-02T04:46:02.891Z,1896
2018-05-02T04:47:13.058Z,1928
2018-05-02T04:48:23.247Z,1932
2018-05-02T04:49:33.460Z,1944
2018-05-02T04:50:43.577Z,1980
2018-05-02T04:51:53.708Z,2024
2018-05-02T04:53:03.865Z,2044
2018-05-02T04:54:14.023Z,2064
2018-05-02T04:55:23.912Z,2084
2018-05-02T04:56:34.234Z,2108
2018-05-02T04:57:44.361Z,2132
2018-05-02T04:58:54.501Z,2156
2018-05-02T05:00:04.649Z,2200
2018-05-02T05:01:14.764Z,2244
2018-05-02T05:02:24.932Z,2268
2018-05-02T05:03:35.102Z,2308
2018-05-02T05:04:45.418Z,2336
2018-05-02T05:05:55.561Z,2372
2018-05-02T05:07:05.491Z,2408
2018-05-02T05:08:15.619Z,2456
2018-05-02T05:09:25.791Z,2520
2018-05-02T05:10:36.132Z,2536
2018-05-02T05:11:46.315Z,2540
2018-05-02T05:12:56.486Z,2580
2018-05-02T05:14:06.627Z,2608
2018-05-02T05:15:16.870Z,2664
2018-05-02T05:16:27.088Z,2688
2018-05-02T05:17:37.227Z,2692
2018-05-02T05:18:47.388Z,2712
2018-05-02T05:19:57.599Z,2808
2018-05-02T05:21:07.728Z,2896
2018-05-02T05:22:17.914Z,2916
2018-05-02T05:23:27.520Z,2952
2018-05-02T05:24:37.699Z,2984
2018-05-02T05:25:47.956Z,3108
2018-05-02T05:26:58.120Z,3256
2018-05-02T05:28:08.463Z,3500
2018-05-02T05:29:18.686Z,3772
2018-05-02T05:30:28.842Z,4020
2018-05-02T05:31:39.103Z,4260
2018-05-02T05:32:49.239Z,4464
2018-05-02T05:33:59.394Z,4600
2018-05-02T05:35:09.582Z,4476
2018-05-02T05:36:19.744Z,4456
2018-05-02T05:37:30.874Z,4756
2018-05-02T05:38:40.998Z,4952
2018-05-02T05:39:51.131Z,5164
2018-05-02T05:41:01.356Z,5348
2018-05-02T05:42:11.541Z,5564
2018-05-02T05:43:21.729Z,5556
2018-05-02T05:44:31.853Z,5372
2018-05-02T05:45:41.982Z,5448
2018-05-02T05:46:52.112Z,5572
2018-05-02T05:48:02.271Z,5668
2018-05-02T05:49:12.476Z,5780
2018-05-02T05:50:22.701Z,6080
2018-05-02T05:51:32.559Z,6280
2018-05-02T05:52:42.426Z,6356
2018-05-02T05:53:52.091Z,6300
2018-05-02T05:55:02.220Z,6184
2018-05-02T05:56:12.388Z,6032
2018-05-02T05:57:22.250Z,5904
2018-05-02T05:58:32.392Z,5876
2018-05-02T05:59:42.520Z,5908
2018-05-02T06:00:52.874Z,5860
2018-05-02T06:02:02.879Z,5844
2018-05-02T06:03:12.830Z,5860
2018-05-02T06:04:22.624Z,5876
2018-05-02T06:05:32.791Z,5904
2018-05-02T06:06:43.108Z,5996
2018-05-02T06:07:53.309Z,6064
2018-05-02T06:09:03.465Z,6108
2018-05-02T06:10:13.359Z,6180
2018-05-02T06:11:23.241Z,6188
2018-05-02T06:12:33.408Z,6204
2018-05-02T06:13:43.610Z,6232
2018-05-02T06:14:53.489Z,6284
2018-05-02T06:16:03.636Z,6340
2018-05-02T06:17:13.307Z,6396
2018-05-02T06:18:23.561Z,6548
2018-05-02T06:19:33.746Z,6704
2018-05-02T06:20:43.867Z,6924
2018-05-02T06:21:54.038Z,7068
2018-05-02T06:23:04.189Z,7160
2018-05-02T06:24:14.392Z,7260
2018-05-02T06:25:24.407Z,7456
2018-05-02T06:26:34.263Z,7740
2018-05-02T06:27:44.451Z,8028
2018-05-02T06:28:54.595Z,8144
2018-05-02T06:30:04.886Z,8204
2018-05-02T06:31:15.065Z,8316
2018-05-02T06:32:25.245Z,8472
2018-05-02T06:33:35.414Z,8720
2018-05-02T06:34:45.653Z,8996
2018-05-02T06:35:55.820Z,9104
2018-05-02T06:37:05.940Z,9140
2018-05-02T06:38:16.071Z,9172
2018-05-02T06:39:25.924Z,9160
2018-05-02T06:40:36.071Z,9284
2018-05-02T06:41:45.933Z,9504
2018-05-02T06:42:56.072Z,9672
2018-05-02T06:44:06.083Z,9860
2018-05-02T06:45:15.954Z,10036
2018-05-02T06:46:26.105Z,10064
2018-05-02T06:47:36.264Z,10300
2018-05-02T06:48:46.463Z,10684
2018-05-02T06:49:56.650Z,11004
2018-05-02T06:51:06.883Z,11196
2018-05-02T06:52:17.121Z,11292
2018-05-02T06:53:26.992Z,11404
2018-05-02T06:54:37.216Z,11444
2018-05-02T06:55:47.365Z,11484
2018-05-02T06:56:57.523Z,11520
2018-05-02T06:58:07.781Z,11500
2018-05-02T06:59:17.939Z,11496
2018-05-02T07:00:28.206Z,11388
2018-05-02T07:01:38.375Z,11344
2018-05-02T07:02:48.583Z,11396
2018-05-02T07:03:58.767Z,11492
2018-05-02T07:05:08.927Z,11568
2018-05-02T07:06:19.302Z,11652
2018-05-02T07:07:29.437Z,11652
2018-05-02T07:08:39.653Z,11576
2018-05-02T07:09:49.904Z,11476
2018-05-02T07:11:00.261Z,11468
2018-05-02T07:12:10.448Z,11564
2018-05-02T07:13:20.616Z,11612
2018-05-02T07:14:30.788Z,11796
2018-05-02T07:15:41.175Z,11956
2018-05-02T07:16:51.367Z,11908
2018-05-02T07:18:01.507Z,11756
2018-05-02T07:19:11.673Z,11608
2018-05-02T07:20:21.812Z,11500
2018-05-02T07:21:31.936Z,11732
2018-05-02T07:22:42.073Z,12088
2018-05-02T07:23:52.225Z,12392
2018-05-02T07:25:02.409Z,12564
2018-05-02T07:26:12.542Z,12652
2018-05-02T07:27:22.429Z,12980
2018-05-02T07:28:32.569Z,13336
2018-05-02T07:29:42.718Z,13520
2018-05-02T07:30:53.875Z,13460
2018-05-02T07:32:04.149Z,13408
2018-05-02T07:33:14.559Z,13624
2018-05-02T07:34:24.687Z,14068
2018-05-02T07:35:34.850Z,14560
2018-05-02T07:36:45.042Z,14688
2018-05-02T07:37:55.266Z,14880
2018-05-02T07:39:05.528Z,15008
2018-05-02T07:40:15.689Z,15232
2018-05-02T07:41:25.912Z,15264
2018-05-02T07:42:36.231Z,15456
2018-05-02T07:43:46.371Z,15712
2018-05-02T07:44:56.599Z,15648
2018-05-02T07:46:06.813Z,15584
2018-05-02T07:47:17.057Z,15616
2018-05-02T07:48:27.224Z,15808
2018-05-02T07:49:37.436Z,15840
2018-05-02T07:50:47.629Z,15872
2018-05-02T07:51:57.815Z,15744
2018-05-02T07:53:07.958Z,15552
2018-05-02T07:54:18.125Z,15328
2018-05-02T07:55:28.151Z,15264
2018-05-02T07:56:38.582Z,15392
2018-05-02T07:57:48.746Z,15584
2018-05-02T07:58:58.635Z,16000
2018-05-02T08:00:08.813Z,16160
2018-05-02T08:01:18.685Z,16000
2018-05-02T08:02:28.873Z,15808
2018-05-02T08:03:39.127Z,15968
2018-05-02T08:04:49.330Z,16256
2018-05-02T08:05:59.496Z,16256
2018-05-02T08:07:09.644Z,16224
2018-05-02T08:08:19.787Z,16416
2018-05-02T08:09:29.937Z,16544
2018-05-02T08:10:39.847Z,16736
2018-05-02T08:11:50.014Z,16992
2018-05-02T08:12:59.911Z,17248
2018-05-02T08:14:09.805Z,17568
2018-05-02T08:15:20.564Z,17632
2018-05-02T08:16:30.642Z,17248
2018-05-02T08:17:40.988Z,16992
2018-05-02T08:18:51.145Z,16960
2018-05-02T08:20:01.293Z,17120
2018-05-02T08:21:11.201Z,17376
2018-05-02T08:22:21.375Z,17536
2018-05-02T08:23:31.525Z,17760
2018-05-02T08:24:41.412Z,18016
2018-05-02T08:25:51.571Z,18208
2018-05-02T08:27:01.731Z,18304
2018-05-02T08:28:11.877Z,18624
2018-05-02T08:29:22.030Z,18688
2018-05-02T08:30:32.240Z,18304
2018-05-02T08:31:42.400Z,18240
2018-05-02T08:32:52.759Z,18496
2018-05-02T08:34:02.991Z,18752
2018-05-02T08:35:12.602Z,19168
2018-05-02T08:36:22.735Z,19232
2018-05-02T08:37:32.883Z,19040
2018-05-02T08:38:43.039Z,18368
2018-05-02T08:39:53.195Z,18176
2018-05-02T08:41:03.380Z,18496
2018-05-02T08:42:12.382Z,19872
2018-05-02T08:43:22.261Z,19936
2018-05-02T08:44:32.158Z,18784
2018-05-02T08:45:42.105Z,18848
2018-05-02T08:46:52.253Z,17696
2018-05-02T08:48:02.417Z,17856
2018-05-02T08:49:12.684Z,17536
2018-05-02T08:50:22.212Z,17088
2018-05-02T08:51:32.417Z,18112
2018-05-02T08:52:42.696Z,18880
2018-05-02T08:53:52.615Z,17632
2018-05-02T08:55:02.249Z,17440
2018-05-02T08:56:12.415Z,19104
2018-05-02T08:57:22.471Z,20960
2018-05-02T08:58:32.822Z,22176
2018-05-02T08:59:42.751Z,20960
2018-05-02T09:00:52.370Z,20512
2018-05-02T09:02:02.708Z,20960
2018-05-02T09:03:12.840Z,21280
2018-05-02T09:04:22.999Z,28832
2018-05-02T09:05:33.247Z,21568
2018-05-02T09:06:43.394Z,21536
2018-05-02T09:07:53.602Z,22752
2018-05-02T09:09:03.780Z,25280
2018-05-02T09:10:13.993Z,22752
2018-05-02T09:11:24.150Z,24608
2018-05-02T09:12:34.288Z,26464
2018-05-02T09:13:44.447Z,32160
2018-05-02T09:14:54.584Z,29056
2018-05-02T09:16:04.737Z,22720
2018-05-02T09:17:15.849Z,22624
2018-05-02T09:18:25.634Z,27936
2018-05-02T09:19:35.856Z,28128
2018-05-02T09:20:46.060Z,27712
2018-05-02T09:21:56.248Z,25696
2018-05-02T09:23:06.405Z,26624
2018-05-02T09:24:16.824Z,24064
2018-05-02T09:25:27.007Z,22976
2018-05-02T09:26:37.196Z,24032
2018-05-02T09:27:47.126Z,26464
2018-05-02T09:28:57.321Z,22688
2018-05-02T09:30:07.485Z,21536
2018-05-02T09:31:17.757Z,20096
2018-05-02T09:32:27.678Z,21440
2018-05-02T09:33:37.846Z,24352
2018-05-02T09:34:47.756Z,23744
2018-05-02T09:35:57.918Z,22080
2018-05-02T09:37:07.890Z,23552
2018-05-02T09:38:18.021Z,25952
2018-05-02T09:39:29.173Z,25184
2018-05-02T09:40:39.044Z,27904
2018-05-02T09:41:49.219Z,26400
2018-05-02T09:42:59.368Z,24928
2018-05-02T09:44:09.716Z,26144
2018-05-02T09:45:19.910Z,23648
2018-05-02T09:46:30.060Z,23168
2018-05-02T09:47:40.208Z,23488
2018-05-02T09:48:50.350Z,29024
2018-05-02T09:50:00.683Z,33216
2018-05-02T09:51:10.918Z,31808
2018-05-02T09:52:21.102Z,29664
2018-05-02T09:53:31.248Z,26336
2018-05-02T09:54:41.539Z,26752
2018-05-02T09:55:51.708Z,26624
2018-05-02T09:57:01.940Z,29568
2018-05-02T09:58:12.004Z,27968
2018-05-02T09:59:22.338Z,27488
2018-05-02T10:00:32.505Z,27360
2018-05-02T10:01:42.692Z,31072
2018-05-02T10:02:52.837Z,33728
2018-05-02T10:04:02.992Z,41120
2018-05-02T10:05:13.148Z,34848
2018-05-02T10:06:23.381Z,40032
2018-05-02T10:07:32.895Z,40256
2018-05-02T10:08:43.133Z,49152
2018-05-02T10:09:53.293Z,43456
2018-05-02T10:11:03.459Z,36640
2018-05-02T10:12:13.605Z,38592
2018-05-02T10:13:23.799Z,41120
2018-05-02T10:14:33.950Z,34816
2018-05-02T10:15:44.156Z,28512
2018-05-02T10:16:54.350Z,25440
2018-05-02T10:18:04.491Z,23712
2018-05-02T10:19:14.691Z,25216
2018-05-02T10:20:24.560Z,30624
2018-05-02T10:21:34.729Z,42432
2018-05-02T10:22:44.925Z,49792
2018-05-02T10:23:55.203Z,47808
2018-05-02T10:25:05.339Z,29184
2018-05-02T10:26:15.738Z,29408
2018-05-02T10:27:25.899Z,29056
2018-05-02T10:28:36.056Z,28000
2018-05-02T10:29:46.199Z,28544
2018-05-02T10:30:56.454Z,29440
2018-05-02T10:32:06.668Z,31264
2018-05-02T10:33:16.900Z,35488
2018-05-02T10:34:27.062Z,29312
2018-05-02T10:35:37.280Z,26048
2018-05-02T10:36:47.468Z,25312
2018-05-02T10:37:57.799Z,24896
2018-05-02T10:39:08.092Z,29408
2018-05-02T10:40:18.230Z,32448
2018-05-02T10:41:28.198Z,30624
2018-05-02T10:42:38.327Z,25952
2018-05-02T10:43:48.480Z,24384
2018-05-02T10:44:58.638Z,24576
2018-05-02T10:46:08.516Z,24160
2018-05-02T10:47:18.644Z,22240
2018-05-02T10:48:28.526Z,23392
2018-05-02T10:49:39.523Z,26496
2018-05-02T10:50:49.430Z,28256
2018-05-02T10:51:59.559Z,28096
2018-05-02T10:53:09.726Z,23520
2018-05-02T10:54:19.949Z,20448
2018-05-02T10:55:29.878Z,21376
2018-05-02T10:56:39.779Z,23616
2018-05-02T10:57:49.953Z,23008
2018-05-02T10:59:00.144Z,22528
2018-05-02T11:00:10.368Z,20352
2018-05-02T11:01:20.504Z,19808
2018-05-02T11:02:30.657Z,21472
2018-05-02T11:03:40.807Z,21536
2018-05-02T11:04:50.709Z,21024
2018-05-02T11:06:00.847Z,20224
2018-05-02T11:07:11.024Z,19840
2018-05-02T11:08:21.462Z,19808
2018-05-02T11:09:31.722Z,19104
2018-05-02T11:10:41.967Z,17632
2018-05-02T11:11:52.259Z,17472
2018-05-02T11:13:02.143Z,17760
2018-05-02T11:14:12.300Z,18240
2018-05-02T11:15:22.448Z,18976
2018-05-02T11:16:32.649Z,18656
2018-05-02T11:17:42.543Z,18848
2018-05-02T11:18:52.489Z,19904
2018-05-02T11:20:02.652Z,19968
2018-05-02T11:21:12.827Z,18880
2018-05-02T11:22:22.997Z,18880
2018-05-02T11:23:33.289Z,18944
2018-05-02T11:24:43.419Z,19392
2018-05-02T11:25:53.573Z,18304
2018-05-02T11:27:03.732Z,18048
2018-05-02T11:28:13.964Z,18464
2018-05-02T11:29:24.191Z,18144
2018-05-02T11:30:34.410Z,16800
2018-05-02T11:31:44.291Z,16288
2018-05-02T11:32:54.435Z,16192
2018-05-02T11:34:04.585Z,16064
2018-05-02T11:35:14.776Z,15936
2018-05-02T11:36:25.061Z,15840
2018-05-02T11:37:35.258Z,15808
2018-05-02T11:38:45.493Z,15872
2018-05-02T11:39:55.652Z,15808
2018-05-02T11:41:05.911Z,15680
2018-05-02T11:42:15.694Z,15648
2018-05-02T11:43:26.808Z,15648
2018-05-02T11:44:36.967Z,15712
2018-05-02T11:45:46.878Z,15744
2018-05-02T11:46:57.024Z,15808
2018-05-02T11:48:07.248Z,16000
2018-05-02T11:49:17.446Z,16224
2018-05-02T11:50:27.623Z,16384
2018-05-02T11:51:37.880Z,16448
2018-05-02T11:52:48.079Z,16288
2018-05-02T11:53:58.332Z,16576
2018-05-02T11:55:08.492Z,17376
2018-05-02T11:56:18.734Z,18016
2018-05-02T11:57:28.625Z,18560
2018-05-02T11:58:38.800Z,18528
2018-05-02T11:59:48.959Z,18912
2018-05-02T12:00:59.091Z,19264
2018-05-02T12:02:09.228Z,18784
2018-05-02T12:03:19.642Z,18336
2018-05-02T12:04:29.854Z,18208
2018-05-02T12:05:40.075Z,18528
2018-05-02T12:06:50.226Z,19936
2018-05-02T12:08:00.444Z,20480
2018-05-02T12:09:10.618Z,20544
2018-05-02T12:10:20.848Z,20352
2018-05-02T12:11:31.090Z,21120
2018-05-02T12:12:41.233Z,20416
2018-05-02T12:13:51.388Z,21152
2018-05-02T12:15:01.531Z,21600
2018-05-02T12:16:11.677Z,22048
2018-05-02T12:17:21.838Z,24352
2018-05-02T12:18:32.014Z,23712
2018-05-02T12:19:42.235Z,22720
2018-05-02T12:20:52.223Z,22976
2018-05-02T12:22:02.584Z,22048
2018-05-02T12:23:12.759Z,22400
2018-05-02T12:24:22.890Z,23040
2018-05-02T12:25:33.067Z,25568
2018-05-02T12:26:43.194Z,23456
2018-05-02T12:27:53.557Z,21408
2018-05-02T12:29:03.703Z,19968
2018-05-02T12:30:13.857Z,19264
2018-05-02T12:31:24.019Z,18720
2018-05-02T12:32:34.201Z,18912
2018-05-02T12:33:44.344Z,19232
2018-05-02T12:34:54.545Z,19904
2018-05-02T12:36:04.800Z,20960
2018-05-02T12:37:14.670Z,23584
2018-05-02T12:38:24.856Z,21984
2018-05-02T12:39:34.797Z,20768
2018-05-02T12:40:44.955Z,19424
2018-05-02T12:41:55.242Z,18720
2018-05-02T12:43:05.403Z,18624
2018-05-02T12:44:15.569Z,19072
2018-05-02T12:45:25.747Z,18272
2018-05-02T12:46:35.753Z,16480
2018-05-02T12:47:45.923Z,15296
2018-05-02T12:48:55.832Z,14560
2018-05-02T12:50:06.013Z,14464
2018-05-02T12:51:16.181Z,14624
2018-05-02T12:52:26.349Z,14976
2018-05-02T12:53:36.232Z,14784
2018-05-02T12:54:46.380Z,14528
2018-05-02T12:55:56.683Z,14272
2018-05-02T12:57:07.059Z,14208
2018-05-02T12:58:17.244Z,14496
2018-05-02T12:59:27.420Z,14880
2018-05-02T13:00:37.580Z,14912
2018-05-02T13:01:48.803Z,15040
2018-05-02T13:02:58.968Z,15360
2018-05-02T13:04:09.105Z,15264
2018-05-02T13:05:19.263Z,14432
2018-05-02T13:06:29.397Z,13728
2018-05-02T13:07:39.534Z,13272
2018-05-02T13:08:49.664Z,13036
2018-05-02T13:09:59.834Z,12644
2018-05-02T13:11:10.123Z,12248
2018-05-02T13:12:20.273Z,12120
2018-05-02T13:13:30.442Z,12104
2018-05-02T13:14:40.595Z,12124
2018-05-02T13:15:50.821Z,12388
2018-05-02T13:17:00.760Z,12516
2018-05-02T13:18:10.340Z,12688
2018-05-02T13:19:20.516Z,12984
2018-05-02T13:20:30.880Z,13336
2018-05-02T13:21:41.062Z,13608
2018-05-02T13:22:50.996Z,13740
2018-05-02T13:24:01.143Z,13748
2018-05-02T13:25:11.299Z,13732
2018-05-02T13:26:21.422Z,13792
2018-05-02T13:27:31.604Z,14240
2018-05-02T13:28:41.760Z,14624
2018-05-02T13:29:51.972Z,15264
2018-05-02T13:31:02.346Z,15584
2018-05-02T13:32:12.578Z,16192
2018-05-02T13:33:23.030Z,16224
2018-05-02T13:34:33.316Z,16032
2018-05-02T13:35:43.225Z,16128
2018-05-02T13:36:53.425Z,16544
2018-05-02T13:38:03.610Z,17376
2018-05-02T13:39:13.757Z,19072
2018-05-02T13:40:23.897Z,19648
2018-05-02T13:41:34.051Z,19808
2018-05-02T13:42:44.206Z,20800
2018-05-02T13:43:54.173Z,24768
2018-05-02T13:45:04.567Z,21472
2018-05-02T13:46:14.736Z,21568
2018-05-02T13:47:24.925Z,21664
2018-05-02T13:48:35.186Z,20608
2018-05-02T13:49:45.362Z,20768
2018-05-02T13:50:55.637Z,22048
2018-05-02T13:52:05.844Z,25120
2018-05-02T13:53:15.744Z,21280
2018-05-02T13:54:26.037Z,20416
2018-05-02T13:55:36.190Z,19200
2018-05-02T13:56:46.083Z,18144
2018-05-02T13:57:56.281Z,17504
2018-05-02T13:59:06.482Z,16832
2018-05-02T14:00:16.635Z,15808
2018-05-02T14:01:26.783Z,16032
2018-05-02T14:02:36.931Z,16416
2018-05-02T14:03:47.116Z,15616
2018-05-02T14:04:57.388Z,15392
2018-05-02T14:06:07.367Z,14848
2018-05-02T14:07:17.542Z,14432
2018-05-02T14:08:27.548Z,14072
2018-05-02T14:09:37.808Z,13860
2018-05-02T14:10:47.964Z,14092
2018-05-02T14:11:58.205Z,14560
2018-05-02T14:13:07.515Z,14752
2018-05-02T14:14:17.673Z,15040
2018-05-02T14:15:27.884Z,14784
2018-05-02T14:16:38.075Z,14528
2018-05-02T14:17:48.263Z,13956
2018-05-02T14:18:58.512Z,13616
2018-05-02T14:20:08.472Z,13168
2018-05-02T14:21:18.618Z,12880
2018-05-02T14:22:28.542Z,12820
2018-05-02T14:23:38.676Z,12940
2018-05-02T14:24:48.592Z,12940
2018-05-02T14:25:58.906Z,12952
2018-05-02T14:27:09.086Z,13036
2018-05-02T14:28:19.280Z,13276
2018-05-02T14:29:29.471Z,13860
2018-05-02T14:30:39.628Z,13892
2018-05-02T14:31:49.411Z,14400
2018-05-02T14:32:59.752Z,14464
2018-05-02T14:34:10.000Z,15232
2018-05-02T14:35:20.156Z,15840
2018-05-02T14:36:30.438Z,16800
2018-05-02T14:37:40.613Z,20128
2018-05-02T14:38:50.770Z,20736
2018-05-02T14:40:00.295Z,17376
2018-05-02T14:41:10.471Z,18432
2018-05-02T14:42:20.723Z,16896
2018-05-02T14:43:30.897Z,17344
2018-05-02T14:44:41.066Z,16544
2018-05-02T14:45:51.245Z,14688
2018-05-02T14:47:01.486Z,13796
2018-05-02T14:48:11.726Z,13056
2018-05-02T14:49:21.649Z,12664
2018-05-02T14:50:31.800Z,12504
2018-05-02T14:51:41.992Z,12492
2018-05-02T14:52:51.886Z,12800
2018-05-02T14:54:02.046Z,13160
2018-05-02T14:55:12.189Z,12816
2018-05-02T14:56:22.324Z,12916
2018-05-02T14:57:32.418Z,13856
2018-05-02T14:58:42.619Z,14720
2018-05-02T14:59:52.801Z,15456
2018-05-02T15:01:03.043Z,21120
2018-05-02T15:02:13.748Z,19776
2018-05-02T15:03:24.003Z,18592
2018-05-02T15:04:34.263Z,17152
2018-05-02T15:05:44.438Z,15552
2018-05-02T15:06:54.583Z,14880
2018-05-02T15:08:04.909Z,13644
2018-05-02T15:09:14.842Z,13232
2018-05-02T15:10:25.055Z,12444
2018-05-02T15:11:35.222Z,11864
2018-05-02T15:12:45.407Z,12128
2018-05-02T15:13:55.605Z,12252
2018-05-02T15:15:05.868Z,12900
2018-05-02T15:16:15.757Z,12184
2018-05-02T15:17:25.646Z,12420
2018-05-02T15:18:35.803Z,12452
2018-05-02T15:19:45.996Z,12588
2018-05-02T15:20:56.138Z,11992
2018-05-02T15:22:06.321Z,11556
2018-05-02T15:23:16.491Z,11628
2018-05-02T15:24:26.689Z,10968
2018-05-02T15:25:36.843Z,10408
2018-05-02T15:26:47.026Z,10124
2018-05-02T15:27:57.287Z,10028
2018-05-02T15:29:07.195Z,10088
2018-05-02T15:30:17.377Z,10316
2018-05-02T15:31:27.564Z,10496
2018-05-02T15:32:38.010Z,10392
2018-05-02T15:33:48.447Z,10472
2018-05-02T15:34:58.613Z,10656
2018-05-02T15:36:08.862Z,11320
2018-05-02T15:37:19.036Z,11732
2018-05-02T15:38:29.201Z,12100